Time;durP1;ratioP1;P1;durP2;ratioP2;P2;SDS_P1;SDS_P2;PMS_P1;PMS_P2;Temp;Humidity;BMP_temperature;BMP_pressure;BME280_temperature;BME280_humidity;BME280_pressure;Samples;Min_cycle;Max_cycle;Signal;HPM_P1;HPM_P2
2021/05/11 00:01:46;;;;;;;0.90;0.70;;;24.70;43.40;;;;;;5036099;28;20094;-61
2021/05/11 00:04:13;;;;;;;1.13;0.70;;;24.70;43.40;;;;;;5034623;28;20136;-60
2021/05/11 00:06:39;;;;;;;0.40;0.40;;;24.70;43.40;;;;;;5044939;28;20084;-61
2021/05/11 00:09:06;;;;;;;1.00;0.60;;;24.70;43.40;;;;;;5043665;28;20028;-60
2021/05/11 00:11:34;;;;;;;0.50;0.50;;;24.70;43.40;;;;;;5043588;28;20025;-59
2021/05/11 00:14:00;;;;;;;1.23;0.60;;;24.70;43.40;;;;;;5041852;28;20487;-60
2021/05/11 00:16:25;;;;;;;0.80;0.60;;;24.70;43.40;;;;;;5041288;28;20103;-60
2021/05/11 00:18:51;;;;;;;0.52;0.50;;;24.70;43.50;;;;;;5037469;28;20108;-60
2021/05/11 00:21:17;;;;;;;0.93;0.68;;;24.70;43.50;;;;;;5034439;28;20029;-60
2021/05/11 00:23:42;;;;;;;0.90;0.68;;;24.70;43.50;;;;;;5043591;28;20058;-60
2021/05/11 00:26:08;;;;;;;1.02;0.70;;;24.70;43.50;;;;;;5037196;28;20025;-60
2021/05/11 00:28:33;;;;;;;0.75;0.60;;;24.60;43.40;;;;;;5042961;28;20116;-60
2021/05/11 00:30:59;;;;;;;1.00;0.55;;;24.70;43.50;;;;;;5042857;28;20037;-61
2021/05/11 00:33:25;;;;;;;0.77;0.60;;;24.60;43.40;;;;;;5028565;28;20068;-62
2021/05/11 00:35:50;;;;;;;0.63;0.60;;;24.70;43.50;;;;;;5034174;28;20408;-60
2021/05/11 00:38:16;;;;;;;0.50;0.50;;;24.60;43.40;;;;;;5044604;28;20056;-60
2021/05/11 00:40:42;;;;;;;1.00;0.60;;;24.60;43.50;;;;;;5042882;28;20059;-59
2021/05/11 00:43:07;;;;;;;0.50;0.50;;;24.60;43.40;;;;;;5028563;28;20111;-60
2021/05/11 00:45:33;;;;;;;0.60;0.60;;;24.60;43.50;;;;;;5040108;28;20484;-60
2021/05/11 00:47:58;;;;;;;0.50;0.50;;;24.60;43.40;;;;;;5040312;28;20349;-60
2021/05/11 00:50:24;;;;;;;0.57;0.57;;;24.60;43.50;;;;;;5042525;28;20427;-60
2021/05/11 00:52:50;;;;;;;1.25;0.60;;;24.60;43.50;;;;;;5047440;28;20518;-59
2021/05/11 00:55:17;;;;;;;0.80;0.60;;;24.60;43.40;;;;;;5041248;28;20059;-61
2021/05/11 00:57:43;;;;;;;0.70;0.50;;;24.60;43.50;;;;;;5036031;28;20080;-60
2021/05/11 01:00:10;;;;;;;0.93;0.52;;;24.60;43.50;;;;;;5034525;28;20402;-61
2021/05/11 01:02:37;;;;;;;0.60;0.60;;;24.60;43.50;;;;;;5035786;28;20402;-60
2021/05/11 01:05:04;;;;;;;0.82;0.50;;;24.60;43.50;;;;;;5039696;28;20032;-60
2021/05/11 01:07:30;;;;;;;0.65;0.50;;;24.60;43.50;;;;;;5036859;28;20029;-60
2021/05/11 01:09:57;;;;;;;0.63;0.60;;;24.60;43.50;;;;;;5031758;28;20157;-60
2021/05/11 01:12:23;;;;;;;1.05;0.57;;;24.60;43.40;;;;;;5038103;28;20116;-60
2021/05/11 01:14:49;;;;;;;1.23;0.52;;;24.60;43.50;;;;;;5036274;28;20472;-59
2021/05/11 01:17:23;;;;;;;0.65;0.50;;;24.60;43.50;;;;;;5047162;28;20387;-62
2021/05/11 01:19:54;;;;;;;0.50;0.50;;;24.60;43.50;;;;;;5048055;28;20518;-60
2021/05/11 01:25:09;;;;;;;0.70;0.50;;;24.50;43.40;;;;;;5046451;28;20024;-59
2021/05/11 01:27:44;;;;;;;0.80;0.50;;;24.50;43.40;;;;;;5046085;28;20483;-61
2021/05/11 01:46:38;;;;;;;0.60;0.50;;;24.40;43.40;;;;;;5035319;28;20036;-60
2021/05/11 01:49:20;;;;;;;0.75;0.60;;;24.50;43.50;;;;;;5047102;28;20116;-61
2021/05/11 02:11:18;;;;;;;0.70;0.60;;;24.40;43.40;;;;;;5027913;28;20049;-60
2021/05/11 02:18:03;;;;;;;1.13;0.60;;;24.40;43.50;;;;;;5040038;28;20032;-61
2021/05/11 02:24:38;;;;;;;0.65;0.60;;;24.40;43.50;;;;;;5040846;28;20220;-60
2021/05/11 02:27:04;;;;;;;0.60;0.50;;;24.30;43.50;;;;;;5037658;28;20029;-61
2021/05/11 02:29:30;;;;;;;0.63;0.47;;;24.30;43.50;;;;;;5043084;28;20676;-59
2021/05/11 02:31:56;;;;;;;0.70;0.50;;;24.40;43.50;;;;;;5034257;28;20036;-60
2021/05/11 02:34:21;;;;;;;0.52;0.52;;;24.30;43.50;;;;;;5043412;28;20124;-60
2021/05/11 02:36:47;;;;;;;0.60;0.45;;;24.30;43.50;;;;;;5041266;28;20036;-62
2021/05/11 02:39:13;;;;;;;0.47;0.47;;;24.30;43.50;;;;;;5024406;28;20381;-58
2021/05/11 02:41:41;;;;;;;0.50;0.50;;;24.30;43.50;;;;;;5035781;28;20077;-60
2021/05/11 02:44:07;;;;;;;0.50;0.50;;;24.30;43.50;;;;;;5043267;28;20089;-60
2021/05/11 02:46:33;;;;;;;0.55;0.40;;;24.30;43.50;;;;;;5043796;28;20035;-60
2021/05/11 02:48:59;;;;;;;0.50;0.50;;;24.30;43.50;;;;;;5044342;28;20025;-60
2021/05/11 02:51:25;;;;;;;0.50;0.50;;;24.30;43.50;;;;;;5037255;28;20025;-60
2021/05/11 02:53:50;;;;;;;0.60;0.55;;;24.30;43.50;;;;;;5039352;28;20075;-58
2021/05/11 02:56:16;;;;;;;0.40;0.40;;;24.30;43.50;;;;;;5043956;28;20033;-60
2021/05/11 02:58:43;;;;;;;0.63;0.50;;;24.30;43.50;;;;;;5045492;28;20234;-60
2021/05/11 03:01:08;;;;;;;0.50;0.50;;;24.30;43.50;;;;;;5037459;28;20048;-60
2021/05/11 03:03:34;;;;;;;0.82;0.50;;;24.30;43.50;;;;;;5036795;28;20479;-60
2021/05/11 03:06:00;;;;;;;0.57;0.52;;;24.30;43.50;;;;;;5039646;28;20025;-57
2021/05/11 03:08:25;;;;;;;0.65;0.50;;;24.30;43.50;;;;;;5040794;28;20040;-61
2021/05/11 03:10:51;;;;;;;0.40;0.40;;;24.20;43.50;;;;;;5033525;28;20082;-59
2021/05/11 03:13:16;;;;;;;0.60;0.60;;;24.20;43.50;;;;;;5039553;28;20123;-60
2021/05/11 03:15:42;;;;;;;0.50;0.50;;;24.20;43.50;;;;;;5039834;28;20337;-58
2021/05/11 03:18:07;;;;;;;0.60;0.60;;;24.20;43.40;;;;;;5044572;28;20151;-58
2021/05/11 03:20:33;;;;;;;0.50;0.50;;;24.20;43.50;;;;;;5044678;28;20041;-60
2021/05/11 03:23:01;;;;;;;0.50;0.50;;;24.20;43.50;;;;;;5043086;28;20040;-59
2021/05/11 03:25:26;;;;;;;0.73;0.55;;;24.20;43.60;;;;;;5022850;28;20070;-60
2021/05/11 03:27:52;;;;;;;0.43;0.43;;;24.20;43.50;;;;;;5036283;28;20068;-60
2021/05/11 03:30:18;;;;;;;1.02;0.68;;;24.20;43.50;;;;;;5033935;28;20029;-59
2021/05/11 03:32:43;;;;;;;0.52;0.50;;;24.20;43.50;;;;;;5024680;28;20029;-61
2021/05/11 03:35:10;;;;;;;0.50;0.50;;;24.20;43.50;;;;;;5023442;28;20087;-60
2021/05/11 03:37:35;;;;;;;0.47;0.47;;;24.20;43.50;;;;;;5024910;28;20025;-60
2021/05/11 03:40:02;;;;;;;0.73;0.47;;;24.20;44.00;;;;;;5032293;28;20043;-60
2021/05/11 03:42:37;;;;;;;0.77;0.50;;;24.20;43.50;;;;;;5044945;28;20077;-58
2021/05/11 03:45:05;;;;;;;0.45;0.40;;;24.20;43.50;;;;;;5040765;28;20076;-60
2021/05/11 03:47:38;;;;;;;0.50;0.40;;;24.20;43.50;;;;;;5041536;28;20126;-61
2021/05/11 03:50:04;;;;;;;0.55;0.50;;;24.20;43.50;;;;;;5042183;28;20112;-61
2021/05/11 03:52:30;;;;;;;0.50;0.50;;;24.10;43.50;;;;;;5045425;28;20036;-60
2021/05/11 03:54:55;;;;;;;0.55;0.43;;;24.10;43.50;;;;;;5031568;28;20021;-60
2021/05/11 03:57:21;;;;;;;0.40;0.40;;;24.20;43.50;;;;;;5040275;28;20085;-61
2021/05/11 03:59:46;;;;;;;0.55;0.55;;;24.10;43.50;;;;;;5043860;28;20389;-61
2021/05/11 04:02:12;;;;;;;0.43;0.43;;;24.10;43.50;;;;;;5038245;28;20041;-59
2021/05/11 04:04:37;;;;;;;0.57;0.40;;;24.10;43.50;;;;;;5041571;28;20033;-59
2021/05/11 04:07:05;;;;;;;0.45;0.43;;;24.10;43.50;;;;;;5037569;28;20034;-59
2021/05/11 04:12:19;;;;;;;0.40;0.40;;;24.10;43.50;;;;;;5028801;28;20444;-61
2021/05/11 04:17:28;;;;;;;0.50;0.50;;;24.10;43.50;;;;;;5042829;28;20511;-59
2021/05/11 04:19:54;;;;;;;0.95;0.50;;;24.10;43.50;;;;;;5038964;28;20029;-60
2021/05/11 04:22:19;;;;;;;0.50;0.50;;;24.10;43.50;;;;;;5039684;28;20487;-58
2021/05/11 04:24:45;;;;;;;1.05;0.50;;;24.10;43.60;;;;;;5043280;28;20541;-59
2021/05/11 04:27:10;;;;;;;0.68;0.55;;;24.10;43.50;;;;;;5045253;28;20029;-60
2021/05/11 04:29:36;;;;;;;0.40;0.40;;;24.10;43.60;;;;;;5028941;28;20077;-60
2021/05/11 04:32:02;;;;;;;0.50;0.50;;;24.10;43.60;;;;;;5041837;28;20450;-60
2021/05/11 04:34:27;;;;;;;0.55;0.50;;;24.10;43.50;;;;;;5047665;28;20029;-58
2021/05/11 04:36:53;;;;;;;0.98;0.40;;;24.10;43.60;;;;;;5046081;28;20424;-60
2021/05/11 04:39:19;;;;;;;0.68;0.40;;;24.10;43.60;;;;;;5046178;28;20480;-60
2021/05/11 04:41:44;;;;;;;0.47;0.47;;;24.00;43.50;;;;;;5040548;28;20017;-60
2021/05/11 04:44:10;;;;;;;0.40;0.40;;;24.10;43.60;;;;;;5040678;28;20032;-60
2021/05/11 04:47:20;;;;;;;0.47;0.40;;;24.00;43.50;;;;;;5047698;28;20449;-59
2021/05/11 04:49:25;;;;;;;0.50;0.50;;;24.00;43.50;;;;;;5036584;28;20562;-60
2021/05/11 04:51:51;;;;;;;0.85;0.55;;;24.10;43.60;;;;;;5038127;28;20053;-59
2021/05/11 04:54:16;;;;;;;0.75;0.60;;;24.00;43.50;;;;;;5044609;28;20455;-58
2021/05/11 04:56:42;;;;;;;0.50;0.50;;;24.00;43.50;;;;;;5041204;28;20033;-60
2021/05/11 04:59:08;;;;;;;0.40;0.40;;;24.00;43.50;;;;;;5044508;28;20128;-59
2021/05/11 05:01:34;;;;;;;0.40;0.40;;;24.00;43.50;;;;;;5036631;28;20095;-60
2021/05/11 05:04:00;;;;;;;0.52;0.50;;;24.00;43.50;;;;;;5032320;28;20021;-60
2021/05/11 05:06:26;;;;;;;0.40;0.40;;;24.00;43.60;;;;;;5047280;28;20404;-59
2021/05/11 05:08:51;;;;;;;1.13;0.50;;;24.00;43.50;;;;;;5034094;28;20231;-59
2021/05/11 05:11:17;;;;;;;0.50;0.50;;;24.00;43.50;;;;;;5036542;28;20504;-59
2021/05/11 05:13:44;;;;;;;1.65;0.50;;;24.00;43.50;;;;;;5044008;28;20133;-60
2021/05/11 05:16:09;;;;;;;0.50;0.50;;;24.00;43.50;;;;;;5042387;28;20028;-61
2021/05/11 05:18:35;;;;;;;0.50;0.50;;;24.00;43.50;;;;;;5038258;28;20025;-61
2021/05/11 05:21:05;;;;;;;0.52;0.47;;;24.00;43.60;;;;;;5031291;28;20108;-62
2021/05/11 05:23:35;;;;;;;0.95;0.55;;;24.00;43.60;;;;;;5046709;28;20053;-61
2021/05/11 05:26:06;;;;;;;0.40;0.40;;;24.00;43.60;;;;;;5043690;28;20039;-62
2021/05/11 05:28:35;;;;;;;0.43;0.43;;;24.00;43.60;;;;;;5044057;28;20081;-60
2021/05/11 05:31:02;;;;;;;0.55;0.55;;;24.00;43.70;;;;;;5029082;28;20493;-58
2021/05/11 05:33:35;;;;;;;0.68;0.50;;;23.90;43.60;;;;;;5039128;28;20036;-59
2021/05/11 05:36:01;;;;;;;0.50;0.50;;;24.00;43.70;;;;;;5048894;28;20472;-60
2021/05/11 05:38:27;;;;;;;0.52;0.50;;;24.00;43.70;;;;;;5044000;28;20051;-59
2021/05/11 05:41:07;;;;;;;0.40;0.40;;;24.00;43.70;;;;;;5042476;28;20563;-59
2021/05/11 05:43:32;;;;;;;;;;;24.00;43.60;;;;;;5043527;28;20451;-58
2021/05/11 05:45:58;;;;;;;0.47;0.40;;;24.00;43.60;;;;;;5044719;28;19912;-60
2021/05/11 05:48:24;;;;;;;0.60;0.50;;;24.10;43.60;;;;;;5046971;28;20049;-60
2021/05/11 05:50:54;;;;;;;1.10;0.70;;;24.10;43.70;;;;;;5046174;28;20029;-58
2021/05/11 05:53:30;;;;;;;0.45;0.45;;;24.10;43.50;;;;;;5044790;28;20455;-58
2021/05/11 05:55:56;;;;;;;0.73;0.50;;;24.10;43.50;;;;;;5043858;28;20035;-60
2021/05/11 05:58:21;;;;;;;0.70;0.57;;;24.10;43.50;;;;;;5046507;28;20134;-60
2021/05/11 06:00:52;;;;;;;0.85;0.57;;;24.20;43.60;;;;;;5034329;28;20453;-59
2021/05/11 06:05:58;;;;;;;0.60;0.50;;;24.20;43.50;;;;;;5046093;28;20050;-60
2021/05/11 06:08:27;;;;;;;0.50;0.50;;;24.20;43.40;;;;;;5034685;28;20025;-60
2021/05/11 06:11:01;;;;;;;0.55;0.47;;;24.20;43.40;;;;;;5039979;28;20037;-60
2021/05/11 06:13:33;;;;;;;0.90;0.47;;;24.30;43.40;;;;;;5047429;28;20091;-60
2021/05/11 06:18:43;;;;;;;1.48;0.50;;;24.30;43.30;;;;;;5047068;28;20527;-61
2021/05/11 06:21:09;;;;;;;0.65;0.50;;;24.30;43.30;;;;;;5046202;28;20029;-60
2021/05/11 06:23:35;;;;;;;1.02;0.60;;;24.30;43.30;;;;;;5043487;28;20071;-59
2021/05/11 06:26:00;;;;;;;0.70;0.60;;;24.30;43.20;;;;;;5035702;28;20033;-61
2021/05/11 06:28:26;;;;;;;0.70;0.55;;;24.40;43.30;;;;;;5035542;28;20080;-60
2021/05/11 06:30:52;;;;;;;1.67;0.68;;;24.40;43.20;;;;;;5044134;28;20054;-59
2021/05/11 06:33:18;;;;;;;1.48;0.60;;;24.40;43.20;;;;;;5046404;28;20091;-59
2021/05/11 06:35:44;;;;;;;1.00;0.68;;;24.40;43.10;;;;;;5041740;28;20129;-60
2021/05/11 06:38:10;;;;;;;1.17;0.68;;;24.40;43.10;;;;;;5037686;28;20025;-59
2021/05/11 06:40:38;;;;;;;0.40;0.40;;;24.40;43.10;;;;;;5041884;28;20035;-61
2021/05/11 06:43:04;;;;;;;1.08;0.60;;;24.40;43.00;;;;;;5045515;28;20036;-58
2021/05/11 06:46:05;;;;;;;0.73;0.60;;;24.50;43.00;;;;;;5041316;28;20031;-59
2021/05/11 06:48:30;;;;;;;0.40;0.40;;;24.50;43.10;;;;;;5040503;28;20032;-60
2021/05/11 06:53:52;;;;;;;0.40;0.40;;;24.50;43.00;;;;;;5025309;28;20127;-59
2021/05/11 06:56:22;;;;;;;1.63;0.50;;;24.60;42.90;;;;;;5040894;28;20035;-61
2021/05/11 06:58:48;;;;;;;0.40;0.40;;;24.60;42.90;;;;;;5042639;28;20122;-60
2021/05/11 07:01:16;;;;;;;2.15;0.60;;;24.60;42.90;;;;;;5038408;28;20037;-61
2021/05/11 07:03:41;;;;;;;0.52;0.50;;;24.60;42.80;;;;;;5045522;28;20029;-60
2021/05/11 07:06:07;;;;;;;1.58;0.50;;;24.70;42.90;;;;;;5044470;28;20055;-58
2021/05/11 07:08:59;;;;;;;0.52;0.50;;;24.70;42.90;;;;;;5039589;28;20028;-60
2021/05/11 07:13:46;;;;;;;2.13;0.50;;;24.70;42.80;;;;;;5035473;28;20041;-59
2021/05/11 07:16:12;;;;;;;0.82;0.50;;;24.70;42.80;;;;;;5029601;28;20476;-59
2021/05/11 07:18:37;;;;;;;0.98;0.60;;;24.70;42.70;;;;;;5039562;28;20057;-59
2021/05/11 07:21:03;;;;;;;0.45;0.45;;;24.70;42.70;;;;;;5043590;28;20036;-60
2021/05/11 07:23:29;;;;;;;0.93;0.55;;;24.70;42.70;;;;;;5041648;28;20040;-58
2021/05/11 07:31:11;;;;;;;0.98;0.57;;;24.70;42.60;;;;;;5042349;28;20041;-58
2021/05/11 07:33:45;;;;;;;0.77;0.40;;;24.80;42.70;;;;;;5044576;28;20043;-60
2021/05/11 07:36:12;;;;;;;1.13;0.60;;;24.80;42.70;;;;;;5041037;28;20013;-59
2021/05/11 07:38:37;;;;;;;0.82;0.50;;;24.80;42.80;;;;;;5046247;28;20021;-59
2021/05/11 07:41:05;;;;;;;0.47;0.43;;;24.80;42.60;;;;;;5036772;28;20029;-60
2021/05/11 07:43:32;;;;;;;1.52;0.60;;;24.80;42.60;;;;;;5043428;28;20150;-59
2021/05/11 07:46:27;;;;;;;0.50;0.50;;;24.80;42.50;;;;;;5043779;28;20083;-60
2021/05/11 08:04:41;;;;;;;1.15;0.70;;;24.90;42.50;;;;;;5036505;28;20037;-60
2021/05/11 08:10:06;;;;;;;1.17;0.60;;;24.90;42.40;;;;;;5046258;28;20024;-59
2021/05/11 08:15:35;;;;;;;1.98;0.70;;;24.90;42.40;;;;;;5043663;28;20624;-60
2021/05/11 08:18:14;;;;;;;1.20;0.80;;;24.90;42.50;;;;;;5046043;28;20017;-59
2021/05/11 08:28:17;;;;;;;1.40;0.80;;;25.00;42.40;;;;;;5045892;28;20047;-59
2021/05/11 08:30:43;;;;;;;1.40;0.90;;;25.00;42.30;;;;;;5038111;28;20044;-60
2021/05/11 08:33:09;;;;;;;1.85;0.95;;;25.00;42.20;;;;;;5040634;28;20041;-59
2021/05/11 08:35:34;;;;;;;1.23;0.90;;;25.00;42.20;;;;;;5039845;28;20025;-61
2021/05/11 08:38:00;;;;;;;1.63;0.90;;;25.00;42.20;;;;;;5037984;28;20049;-60
2021/05/11 08:40:26;;;;;;;1.23;0.80;;;24.90;42.20;;;;;;5031678;28;20018;-59
2021/05/11 08:42:52;;;;;;;2.03;0.90;;;24.90;42.20;;;;;;5032186;28;20095;-60
2021/05/11 08:45:18;;;;;;;0.93;0.73;;;24.90;42.30;;;;;;5046588;28;20098;-60
2021/05/11 08:47:50;;;;;;;1.73;1.00;;;24.90;42.20;;;;;;5044317;28;20406;-60
2021/05/11 08:50:24;;;;;;;3.28;1.02;;;24.90;42.20;;;;;;5038945;28;20416;-59
2021/05/11 09:26:08;;;;;;;2.30;1.10;;;25.00;42.10;;;;;;4983973;28;20160;-60
2021/05/11 09:28:50;;;;;;;1.83;1.00;;;25.00;42.00;;;;;;5030177;28;20041;-60
2021/05/11 09:34:05;;;;;;;2.67;0.80;;;25.10;42.10;;;;;;5044562;28;20064;-59
2021/05/11 09:56:19;;;;;;;2.05;0.95;;;25.10;41.90;;;;;;5043239;28;20121;-61
2021/05/11 09:59:19;;;;;;;1.35;0.88;;;25.10;42.00;;;;;;5042448;28;20025;-60
2021/05/11 10:47:02;;;;;;;1.58;0.80;;;25.10;41.80;;;;;;5046548;28;19989;-59
2021/05/11 10:49:37;;;;;;;1.50;0.77;;;25.10;41.80;;;;;;5042227;28;20052;-59
2021/05/11 10:52:13;;;;;;;1.25;0.73;;;25.10;41.80;;;;;;5033672;28;20037;-59
2021/05/11 10:55:06;;;;;;;1.10;0.70;;;25.10;41.80;;;;;;5036629;28;20404;-60
2021/05/11 10:58:03;;;;;;;1.17;0.80;;;25.20;41.90;;;;;;5030777;28;20482;-59
2021/05/11 11:03:27;;;;;;;0.95;0.70;;;25.10;41.70;;;;;;5026371;28;20108;-59
2021/05/11 11:05:57;;;;;;;1.48;0.80;;;25.20;41.70;;;;;;5044986;28;20045;-60
2021/05/11 11:08:37;;;;;;;0.75;0.70;;;25.20;41.70;;;;;;5046723;28;20037;-62
2021/05/11 11:11:19;;;;;;;1.00;0.70;;;25.20;41.70;;;;;;5042490;28;20033;-60
2021/05/11 11:13:50;;;;;;;0.82;0.65;;;25.20;41.80;;;;;;5037333;28;20150;-59
2021/05/11 11:16:16;;;;;;;2.00;0.90;;;25.20;41.80;;;;;;5031678;28;20110;-59
2021/05/11 11:18:44;;;;;;;1.20;0.80;;;25.20;41.80;;;;;;5040014;28;20030;-60
2021/05/11 11:23:54;;;;;;;1.48;0.88;;;25.30;41.80;;;;;;5044602;28;20094;-59
2021/05/11 11:26:31;;;;;;;1.10;0.80;;;25.20;41.80;;;;;;5026002;28;20029;-59
2021/05/11 11:29:11;;;;;;;1.27;0.80;;;25.30;41.90;;;;;;5040821;28;20109;-59
2021/05/11 11:31:41;;;;;;;1.20;0.80;;;25.30;41.80;;;;;;5044319;28;20156;-61
2021/05/11 11:34:28;;;;;;;1.55;0.70;;;25.30;41.90;;;;;;5036320;28;20033;-60
2021/05/11 11:37:02;;;;;;;1.63;0.70;;;25.30;41.90;;;;;;5033312;28;20037;-61
2021/05/11 11:39:33;;;;;;;1.33;0.82;;;25.30;41.90;;;;;;5041672;28;20068;-60
2021/05/11 11:42:15;;;;;;;0.93;0.68;;;25.30;41.80;;;;;;5043728;28;20476;-59
2021/05/11 11:44:41;;;;;;;1.58;0.90;;;25.30;41.80;;;;;;5027034;28;20108;-60
2021/05/11 11:47:09;;;;;;;1.35;0.80;;;25.30;41.80;;;;;;5041231;28;20123;-60
2021/05/11 11:49:40;;;;;;;1.27;0.77;;;25.40;41.90;;;;;;5044019;28;20112;-59
2021/05/11 11:52:11;;;;;;;1.08;0.70;;;25.40;41.90;;;;;;5033533;28;22310;-58
2021/05/11 11:59:32;;;;;;;1.48;0.80;;;25.40;42.00;;;;;;5043747;28;20369;-61
2021/05/11 12:02:05;;;;;;;1.48;0.80;;;25.40;41.90;;;;;;5039137;28;20483;-60
2021/05/11 12:04:32;;;;;;;1.70;0.80;;;25.40;41.90;;;;;;5040717;28;20044;-60
2021/05/11 12:07:08;;;;;;;1.10;0.70;;;25.40;41.90;;;;;;5042515;28;20033;-60
2021/05/11 12:09:34;;;;;;;1.45;0.70;;;25.40;41.90;;;;;;5037932;28;20067;-62
2021/05/11 12:12:01;;;;;;;1.65;0.70;;;25.40;41.90;;;;;;5034725;28;20033;-63
2021/05/11 12:14:27;;;;;;;1.92;0.70;;;25.40;41.90;;;;;;5040609;28;20116;-60
2021/05/11 12:16:53;;;;;;;1.67;0.90;;;25.40;41.90;;;;;;5032724;28;20044;-62
2021/05/11 12:19:24;;;;;;;1.75;0.85;;;25.40;41.90;;;;;;5033253;28;20052;-59
2021/05/11 12:22:04;;;;;;;0.82;0.60;;;25.40;41.90;;;;;;5042142;28;20025;-59
2021/05/11 12:24:32;;;;;;;1.15;0.70;;;25.40;42.00;;;;;;5036598;28;20194;-61
2021/05/11 12:27:13;;;;;;;1.73;0.80;;;25.40;42.00;;;;;;5041098;28;20029;-59
2021/05/11 12:30:07;;;;;;;1.33;0.70;;;25.40;42.00;;;;;;5036326;28;20036;-59
2021/05/11 12:32:34;;;;;;;1.00;0.70;;;25.50;42.00;;;;;;5039303;28;20273;-59
2021/05/11 12:35:13;;;;;;;1.23;0.77;;;25.50;42.00;;;;;;5043220;28;20495;-61
2021/05/11 12:37:54;;;;;;;0.70;0.60;;;25.50;42.00;;;;;;5032941;28;20099;-58
2021/05/11 12:40:30;;;;;;;1.40;0.70;;;25.50;42.00;;;;;;5031211;28;20090;-60
2021/05/11 12:43:03;;;;;;;1.23;0.80;;;25.50;42.10;;;;;;5041592;28;20364;-60
2021/05/11 12:45:39;;;;;;;1.10;0.80;;;25.50;42.10;;;;;;5030686;28;20017;-60
2021/05/11 12:48:07;;;;;;;0.85;0.60;;;25.50;42.10;;;;;;5034873;28;20038;-60
2021/05/11 12:50:39;;;;;;;1.00;0.70;;;25.50;42.10;;;;;;5041969;28;20040;-61
2021/05/11 13:26:07;;;;;;;1.40;0.85;;;25.60;42.90;;;;;;5041284;28;20527;-62
2021/05/11 13:31:30;;;;;;;4.88;0.90;;;25.60;43.00;;;;;;5044035;28;20055;-60
2021/05/11 13:33:57;;;;;;;2.00;0.90;;;25.60;43.10;;;;;;5043383;28;20044;-61
2021/05/11 13:36:23;;;;;;;3.45;1.00;;;25.60;43.30;;;;;;5036083;28;20056;-61
2021/05/11 13:38:49;;;;;;;3.03;0.93;;;25.60;43.00;;;;;;5036886;28;20074;-61
2021/05/11 13:41:14;;;;;;;5.70;1.02;;;25.60;43.30;;;;;;5038929;28;20025;-62
2021/05/11 13:43:40;;;;;;;3.17;0.90;;;25.60;42.90;;;;;;5043924;28;20021;-61
2021/05/11 13:46:06;;;;;;;1.83;0.80;;;25.60;43.30;;;;;;5040026;28;20033;-62
2021/05/11 13:48:43;;;;;;;6.70;1.50;;;25.70;43.60;;;;;;5033688;28;20107;-60
2021/05/11 13:51:18;;;;;;;2.63;0.90;;;25.60;43.30;;;;;;5046415;28;20448;-61
2021/05/11 13:53:53;;;;;;;3.17;0.90;;;25.70;43.20;;;;;;5037602;28;20145;-62
2021/05/11 13:57:13;;;;;;;5.47;1.00;;;25.70;43.40;;;;;;5040495;28;20452;-63
2021/05/11 14:02:10;;;;;;;2.65;1.70;;;25.60;44.20;;;;;;5039218;28;20035;-60
2021/05/11 14:04:36;;;;;;;4.10;1.15;;;25.60;43.90;;;;;;5045997;28;20370;-61
2021/05/11 14:07:01;;;;;;;2.70;1.25;;;25.70;44.00;;;;;;5035348;28;20029;-62
2021/05/11 14:09:27;;;;;;;3.88;1.10;;;25.60;44.00;;;;;;5042917;28;20750;-61
2021/05/11 14:11:53;;;;;;;3.25;1.05;;;25.70;44.00;;;;;;5037109;28;20082;-61
2021/05/11 14:14:19;;;;;;;3.28;1.02;;;25.60;44.20;;;;;;5041287;28;20075;-62
2021/05/11 14:16:45;;;;;;;2.90;1.20;;;25.70;44.60;;;;;;5046254;28;20043;-61
2021/05/11 14:19:12;;;;;;;4.07;1.10;;;25.70;44.80;;;;;;5030276;28;20017;-62
2021/05/11 14:21:38;;;;;;;3.25;1.00;;;25.70;44.60;;;;;;5026115;28;20037;-61
2021/05/11 14:24:04;;;;;;;3.97;1.00;;;25.70;44.70;;;;;;5036370;28;20094;-60
2021/05/11 14:26:31;;;;;;;4.15;1.05;;;25.70;44.80;;;;;;5025872;28;20033;-62
2021/05/11 14:28:57;;;;;;;4.85;1.00;;;25.70;44.90;;;;;;5031235;28;20021;-62
2021/05/11 14:31:23;;;;;;;4.97;1.00;;;25.70;44.80;;;;;;5039157;28;20079;-63
2021/05/11 14:33:49;;;;;;;2.83;1.05;;;25.70;45.00;;;;;;5036726;28;20029;-61
2021/05/11 14:36:14;;;;;;;2.90;1.25;;;25.70;44.80;;;;;;5032848;28;20381;-61
2021/05/11 14:38:40;;;;;;;2.92;1.05;;;25.70;44.90;;;;;;5041817;28;20029;-62
2021/05/11 14:41:07;;;;;;;3.33;1.27;;;25.70;44.90;;;;;;5044560;28;20033;-61
2021/05/11 14:43:34;;;;;;;6.03;1.10;;;25.70;44.70;;;;;;5045161;28;20035;-61
2021/05/11 14:46:01;;;;;;;3.95;1.08;;;25.70;44.70;;;;;;5044076;28;20029;-62
2021/05/11 14:48:27;;;;;;;2.10;1.00;;;25.70;44.60;;;;;;5038154;28;20033;-62
2021/05/11 14:50:53;;;;;;;3.90;1.10;;;25.70;44.60;;;;;;5043760;28;20048;-63
2021/05/11 14:53:18;;;;;;;3.58;1.10;;;25.70;45.10;;;;;;5038946;28;20044;-61
2021/05/11 14:55:44;;;;;;;3.95;1.30;;;25.60;44.50;;;;;;5037618;28;20060;-62
2021/05/11 14:58:11;;;;;;;2.42;0.98;;;25.60;44.50;;;;;;5039089;28;20080;-61
2021/05/11 15:00:36;;;;;;;4.45;1.10;;;25.60;44.60;;;;;;5036593;28;20091;-60
2021/05/11 15:03:02;;;;;;;2.40;1.00;;;25.60;44.60;;;;;;5036599;28;20563;-61
2021/05/11 15:05:28;;;;;;;3.15;1.10;;;25.60;44.60;;;;;;5031752;28;20041;-61
2021/05/11 15:07:54;;;;;;;3.40;1.05;;;25.60;44.60;;;;;;5034373;28;20068;-61
2021/05/11 15:10:20;;;;;;;4.57;1.20;;;25.60;44.80;;;;;;5034640;28;20032;-61
2021/05/11 15:12:46;;;;;;;2.25;0.82;;;25.50;44.80;;;;;;5037767;28;20979;-61
2021/05/11 15:15:16;;;;;;;3.88;1.10;;;25.50;45.40;;;;;;5037371;28;20032;-63
2021/05/11 15:20:10;;;;;;;1.90;1.00;;;25.50;45.00;;;;;;5031657;28;20044;-61
2021/05/11 15:22:36;;;;;;;2.22;1.23;;;25.50;44.90;;;;;;5039604;28;20037;-61
2021/05/11 15:25:02;;;;;;;3.03;1.20;;;25.50;44.90;;;;;;5036492;28;20025;-63
2021/05/11 15:27:28;;;;;;;2.08;1.00;;;25.50;45.00;;;;;;5037049;28;20029;-61
2021/05/11 15:29:54;;;;;;;3.00;1.10;;;25.50;45.20;;;;;;5038430;28;20048;-63
2021/05/11 15:32:45;;;;;;;3.55;0.95;;;25.50;45.10;;;;;;5039293;28;20471;-60
2021/05/11 15:35:23;;;;;;;3.15;1.27;;;25.50;45.20;;;;;;5035553;28;20025;-62
2021/05/11 15:37:56;;;;;;;4.47;1.00;;;25.50;45.60;;;;;;5033551;28;20765;-61
2021/05/11 15:40:22;;;;;;;2.60;0.80;;;25.50;45.70;;;;;;5033147;28;20705;-61
2021/05/11 15:42:49;;;;;;;3.45;1.10;;;25.50;45.70;;;;;;5033660;28;20090;-61
2021/05/11 15:45:16;;;;;;;3.65;0.95;;;25.50;45.90;;;;;;5029812;28;20048;-62
2021/05/11 15:47:52;;;;;;;5.55;1.10;;;25.50;45.90;;;;;;5040536;28;20063;-61
2021/05/11 15:50:26;;;;;;;2.50;0.98;;;25.50;46.30;;;;;;5036121;28;20456;-61
2021/05/11 15:53:01;;;;;;;2.85;1.00;;;25.50;46.30;;;;;;5044279;28;20681;-60
2021/05/11 15:55:26;;;;;;;2.55;0.90;;;25.50;46.20;;;;;;5037343;28;20033;-62
2021/05/11 15:57:52;;;;;;;3.40;1.13;;;25.50;46.40;;;;;;5042404;28;20098;-60
2021/05/11 16:00:19;;;;;;;3.80;1.10;;;25.50;46.20;;;;;;5035299;28;20029;-61
2021/05/11 16:02:45;;;;;;;2.88;0.98;;;25.50;46.30;;;;;;5039256;28;20402;-61
2021/05/11 16:05:11;;;;;;;2.35;1.02;;;25.50;46.40;;;;;;5040616;28;20754;-61
2021/05/11 16:07:36;;;;;;;4.00;0.90;;;25.50;46.50;;;;;;5039821;28;20083;-61
2021/05/11 16:10:05;;;;;;;3.38;1.20;;;25.40;46.80;;;;;;5041316;28;20763;-63
2021/05/11 16:12:32;;;;;;;4.28;1.00;;;25.40;46.90;;;;;;5038189;28;20128;-61
2021/05/11 16:14:59;;;;;;;3.80;1.17;;;25.40;47.20;;;;;;5031700;28;20163;-60
2021/05/11 16:17:24;;;;;;;3.40;1.10;;;25.40;46.90;;;;;;5035865;28;20048;-61
2021/05/11 16:19:50;;;;;;;2.58;1.20;;;25.40;46.70;;;;;;5034113;28;20116;-60
2021/05/11 16:22:16;;;;;;;2.38;1.00;;;25.40;46.80;;;;;;5044494;28;20082;-60
2021/05/11 16:24:41;;;;;;;3.05;1.00;;;25.40;46.70;;;;;;5046409;28;20247;-63
2021/05/11 16:27:07;;;;;;;3.78;0.80;;;25.40;46.70;;;;;;5039886;28;20021;-61
2021/05/11 16:29:33;;;;;;;7.25;1.08;;;25.40;46.60;;;;;;5043904;28;20410;-61
2021/05/11 16:31:59;;;;;;;2.72;0.90;;;25.40;46.70;;;;;;5034399;28;20109;-61
2021/05/11 16:34:26;;;;;;;4.85;1.17;;;25.40;46.70;;;;;;5038747;28;20179;-61
2021/05/11 16:36:52;;;;;;;2.53;1.00;;;25.40;46.70;;;;;;5037068;28;20359;-63
2021/05/11 16:39:18;;;;;;;2.22;0.95;;;25.40;46.70;;;;;;5038389;28;20093;-62
2021/05/11 16:41:43;;;;;;;3.20;1.02;;;25.40;46.60;;;;;;5040382;28;20361;-62
2021/05/11 16:44:09;;;;;;;5.97;1.60;;;25.40;46.50;;;;;;5041774;28;20033;-61
2021/05/11 16:46:35;;;;;;;8.25;3.50;;;25.40;46.50;;;;;;5039576;28;20115;-63
2021/05/11 16:49:01;;;;;;;10.65;5.80;;;25.40;46.30;;;;;;5034728;28;20029;-61
2021/05/11 16:51:27;;;;;;;11.73;7.45;;;25.40;46.30;;;;;;5040773;28;20762;-61
2021/05/11 16:53:53;;;;;;;15.40;8.07;;;25.40;46.30;;;;;;5038985;28;20056;-60
2021/05/11 16:56:20;;;;;;;14.57;8.57;;;25.40;46.40;;;;;;5040540;28;20044;-61
2021/05/11 16:58:45;;;;;;;15.68;8.40;;;25.40;46.30;;;;;;5035739;28;20819;-60
2021/05/11 17:01:11;;;;;;;16.80;8.80;;;25.40;46.70;;;;;;5037386;28;20040;-62
2021/05/11 17:03:37;;;;;;;16.75;9.77;;;25.40;46.10;;;;;;5038253;28;20453;-62
2021/05/11 17:06:03;;;;;;;18.70;9.43;;;25.40;46.00;;;;;;5038407;28;20036;-61